Time;durP1;ratioP1;P1;durP2;ratioP2;P2;SDS_P1;SDS_P2;PMS_P1;PMS_P2;Temp;Humidity;BMP_temperature;BMP_pressure;BME280_temperature;BME280_humidity;BME280_pressure;Samples;Min_cycle;Max_cycle;Signal;HPM_P1;HPM_P2
2022/05/24 00:00:25;;;;;;;6.00;2.30;;;19.10;99.90;;;;;;5061324;28;20188;-72
2022/05/24 00:02:52;;;;;;;6.97;2.50;;;19.10;99.90;;;;;;5049438;28;20186;-72
2022/05/24 00:05:27;;;;;;;8.43;2.90;;;19.10;99.90;;;;;;5068084;28;20240;-72
2022/05/24 00:07:57;;;;;;;10.93;2.90;;;19.00;99.90;;;;;;5060170;28;20717;-72
2022/05/24 00:10:29;;;;;;;8.17;2.50;;;18.90;99.90;;;;;;5063909;28;20857;-72
2022/05/24 00:13:00;;;;;;;6.03;2.43;;;19.00;99.90;;;;;;5055214;28;20787;-72
2022/05/24 00:15:30;;;;;;;6.23;2.20;;;19.00;99.90;;;;;;5044394;28;20179;-72
2022/05/24 00:18:15;;;;;;;5.67;2.50;;;19.10;99.90;;;;;;5048506;28;20186;-72
2022/05/24 00:21:03;;;;;;;5.80;2.40;;;19.20;99.90;;;;;;5045776;28;20195;-72
2022/05/24 00:23:32;;;;;;;3.83;2.00;;;19.10;99.90;;;;;;5035947;28;20241;-72
2022/05/24 00:26:09;;;;;;;4.33;2.00;;;19.20;99.90;;;;;;5044309;28;20274;-72
2022/05/24 00:28:37;;;;;;;8.00;2.30;;;19.20;99.90;;;;;;5065987;28;20311;-72
2022/05/24 00:31:06;;;;;;;5.10;2.00;;;19.20;99.90;;;;;;5033918;28;20750;-72
2022/05/24 00:33:35;;;;;;;6.20;2.27;;;19.20;99.90;;;;;;5058784;28;20218;-72
2022/05/24 00:36:02;;;;;;;7.23;2.43;;;19.20;99.90;;;;;;5060360;28;20274;-72
2022/05/24 00:38:39;;;;;;;8.13;2.33;;;19.10;99.90;;;;;;5053606;28;20269;-72
2022/05/24 00:41:27;;;;;;;5.57;2.33;;;19.10;99.90;;;;;;5055668;28;20217;-72
2022/05/24 00:44:08;;;;;;;7.07;2.40;;;19.10;99.90;;;;;;5060098;28;20643;-72
2022/05/24 00:47:09;;;;;;;7.03;2.43;;;19.10;99.90;;;;;;5051169;28;20643;-72
2022/05/24 00:49:58;;;;;;;8.20;2.50;;;19.10;99.90;;;;;;5065002;28;20202;-72
2022/05/24 00:53:06;;;;;;;8.40;2.73;;;19.10;99.90;;;;;;5063529;28;20207;-72
2022/05/24 00:55:49;;;;;;;5.93;2.37;;;19.10;99.90;;;;;;5048224;28;20190;-72
2022/05/24 00:58:45;;;;;;;4.50;2.23;;;19.10;99.90;;;;;;5061992;28;20247;-72
2022/05/24 01:01:39;;;;;;;6.97;2.80;;;19.10;99.90;;;;;;5034543;28;20191;-72
2022/05/24 01:04:11;;;;;;;8.67;3.10;;;19.10;99.90;;;;;;5032160;28;20187;-72
2022/05/24 01:06:38;;;;;;;6.57;2.70;;;19.10;99.90;;;;;;5061431;28;20651;-72
2022/05/24 01:09:13;;;;;;;9.67;3.10;;;19.10;99.90;;;;;;5055971;28;20233;-72
2022/05/24 01:11:45;;;;;;;8.13;2.83;;;19.00;99.90;;;;;;5073167;28;20283;-72
2022/05/24 01:14:18;;;;;;;11.63;3.20;;;19.00;99.90;;;;;;5045673;28;21008;-72
2022/05/24 01:16:45;;;;;;;11.73;3.40;;;18.90;99.90;;;;;;5053502;28;20209;-72
2022/05/24 01:19:30;;;;;;;11.87;3.10;;;18.90;99.90;;;;;;5063816;28;20187;-72
2022/05/24 01:22:15;;;;;;;12.43;3.53;;;18.90;99.90;;;;;;5059893;28;20205;-72
2022/05/24 01:25:10;;;;;;;12.53;3.47;;;18.90;99.90;;;;;;5083394;28;20652;-72
2022/05/24 01:27:38;;;;;;;9.57;3.27;;;18.70;99.90;;;;;;5061754;28;20222;-72
2022/05/24 01:30:08;;;;;;;11.00;3.23;;;18.70;99.90;;;;;;5065922;28;20190;-72
2022/05/24 01:38:17;;;;;;;17.90;4.17;;;18.60;99.90;;;;;;5062234;28;20233;-72
2022/05/24 01:40:46;;;;;;;13.17;4.33;;;18.60;99.90;;;;;;5059898;28;20244;-72
2022/05/24 01:43:13;;;;;;;16.83;4.10;;;18.60;99.90;;;;;;5049989;28;20209;-72
2022/05/24 01:46:03;;;;;;;17.10;4.17;;;18.60;99.90;;;;;;5068835;28;20744;-72
2022/05/24 01:48:38;;;;;;;13.20;3.67;;;18.50;99.90;;;;;;5051534;28;20269;-72
2022/05/24 01:51:08;;;;;;;9.80;3.57;;;18.50;99.90;;;;;;5050165;28;20188;-72
2022/05/24 01:53:42;;;;;;;14.27;3.77;;;18.50;99.90;;;;;;5065089;28;20301;-72
2022/05/24 01:56:17;;;;;;;14.47;4.23;;;18.40;99.90;;;;;;5062831;28;20184;-72
2022/05/24 01:58:53;;;;;;;13.50;3.83;;;18.40;99.90;;;;;;5043600;28;20904;-72
2022/05/24 02:01:37;;;;;;;11.27;3.77;;;18.30;99.90;;;;;;5066748;28;20178;-72
2022/05/24 02:04:06;;;;;;;10.10;3.30;;;18.30;99.90;;;;;;5059124;28;20186;-72
2022/05/24 02:06:33;;;;;;;12.07;3.90;;;18.40;99.90;;;;;;5075655;28;20193;-72
2022/05/24 02:09:04;;;;;;;16.13;4.77;;;18.40;99.90;;;;;;5071326;28;20187;-72
2022/05/24 02:11:34;;;;;;;12.07;4.13;;;18.40;99.90;;;;;;5062085;28;20191;-72
2022/05/24 02:14:19;;;;;;;14.80;4.57;;;18.40;99.90;;;;;;5076209;28;20264;-72
2022/05/24 02:17:09;;;;;;;17.23;4.63;;;18.40;99.90;;;;;;5060103;28;20187;-72
2022/05/24 02:19:44;;;;;;;13.70;4.23;;;18.30;99.90;;;;;;5072873;28;20639;-72
2022/05/24 02:22:19;;;;;;;20.97;4.60;;;18.40;99.90;;;;;;5047975;28;20187;-72
2022/05/24 02:25:20;;;;;;;12.93;4.07;;;18.40;99.90;;;;;;5040606;28;20542;-71
2022/05/24 02:27:48;;;;;;;16.87;4.13;;;18.40;99.90;;;;;;5055345;28;20195;-72
2022/05/24 02:30:22;;;;;;;18.23;4.50;;;18.40;99.90;;;;;;5050835;28;20659;-72
2022/05/24 02:32:49;;;;;;;17.37;4.37;;;18.40;99.90;;;;;;5057376;28;20218;-72
2022/05/24 02:35:18;;;;;;;18.67;4.63;;;18.50;99.90;;;;;;5057702;28;20187;-72
2022/05/24 02:37:45;;;;;;;15.73;4.20;;;18.40;99.90;;;;;;5073823;28;20219;-72
2022/05/24 02:42:58;;;;;;;12.23;3.93;;;18.40;99.90;;;;;;5087739;28;20191;-72
2022/05/24 02:45:28;;;;;;;16.97;4.07;;;18.40;99.90;;;;;;5065999;28;20211;-72
2022/05/24 02:47:54;;;;;;;12.83;4.30;;;18.40;99.90;;;;;;5068865;28;20198;-72
2022/05/24 02:50:21;;;;;;;17.93;4.57;;;18.40;99.90;;;;;;5064193;28;20190;-72
2022/05/24 02:52:49;;;;;;;18.20;4.63;;;18.40;99.90;;;;;;5061727;28;20250;-72
2022/05/24 02:55:16;;;;;;;14.47;4.07;;;18.50;99.90;;;;;;5053671;28;20185;-72
2022/05/24 02:57:43;;;;;;;15.43;4.10;;;18.50;99.90;;;;;;5050434;28;20726;-72
2022/05/24 03:00:16;;;;;;;14.17;4.10;;;18.50;99.90;;;;;;5054013;28;20278;-72
2022/05/24 03:02:43;;;;;;;17.03;5.10;;;18.50;99.90;;;;;;5044986;28;20198;-72
2022/05/24 03:05:15;;;;;;;16.87;5.10;;;18.50;99.90;;;;;;5065962;28;20205;-72
2022/05/24 03:10:29;;;;;;;14.83;4.77;;;18.50;99.90;;;;;;5059699;28;20182;-72
2022/05/24 03:15:44;;;;;;;16.70;4.87;;;18.60;99.90;;;;;;5063191;28;20547;-72
2022/05/24 03:18:14;;;;;;;15.93;4.77;;;18.50;99.90;;;;;;5066120;28;20195;-72
2022/05/24 03:20:41;;;;;;;16.33;4.30;;;18.60;99.90;;;;;;5078192;28;20190;-72
2022/05/24 03:23:08;;;;;;;22.23;5.00;;;18.60;99.90;;;;;;5041237;28;20201;-72
2022/05/24 03:25:35;;;;;;;19.73;4.83;;;18.50;99.90;;;;;;5065369;28;20195;-72
2022/05/24 03:28:04;;;;;;;22.60;5.00;;;18.50;99.90;;;;;;5039548;28;20753;-72
2022/05/24 03:30:36;;;;;;;16.93;4.50;;;18.50;99.90;;;;;;5064121;28;20226;-72
2022/05/24 03:33:03;;;;;;;17.13;4.47;;;18.50;99.90;;;;;;5048814;28;20293;-72
2022/05/24 03:35:29;;;;;;;15.40;5.00;;;18.50;99.90;;;;;;5027525;28;20210;-72
2022/05/24 03:37:56;;;;;;;16.77;4.67;;;18.60;99.90;;;;;;5029558;28;20740;-72
2022/05/24 03:40:22;;;;;;;21.30;4.90;;;18.50;99.90;;;;;;5061278;28;20282;-72
2022/05/24 03:42:51;;;;;;;12.47;4.03;;;18.60;99.90;;;;;;5074607;28;20187;-72
2022/05/24 03:45:19;;;;;;;13.67;4.00;;;18.60;99.90;;;;;;5034614;28;20191;-72
2022/05/24 03:47:45;;;;;;;17.80;5.10;;;18.60;99.90;;;;;;5056648;28;20199;-72
2022/05/24 03:50:13;;;;;;;16.27;4.20;;;18.60;99.90;;;;;;5039658;28;20194;-72
2022/05/24 03:52:39;;;;;;;10.87;3.87;;;18.60;99.90;;;;;;5050318;28;20218;-72
2022/05/24 03:55:06;;;;;;;15.60;4.70;;;18.70;99.90;;;;;;5075656;28;20596;-72
2022/05/24 04:00:24;;;;;;;18.37;4.73;;;18.70;99.90;;;;;;5050908;28;20198;-72
2022/05/24 04:02:50;;;;;;;15.17;4.40;;;18.70;99.90;;;;;;5063118;28;20198;-72
2022/05/24 04:05:17;;;;;;;18.37;4.63;;;18.70;99.90;;;;;;5046913;28;20749;-72
2022/05/24 04:07:44;;;;;;;18.03;4.37;;;18.70;99.90;;;;;;5032506;28;20211;-72
2022/05/24 04:10:14;;;;;;;13.83;4.40;;;18.70;99.90;;;;;;5052291;28;20259;-72
2022/05/24 04:12:41;;;;;;;18.57;5.47;;;18.70;99.90;;;;;;5059391;28;20219;-72
2022/05/24 04:15:07;;;;;;;21.30;4.50;;;18.70;99.90;;;;;;5042619;28;20286;-72
2022/05/24 04:17:34;;;;;;;12.30;4.20;;;18.70;99.90;;;;;;5043700;28;20257;-72
2022/05/24 04:20:00;;;;;;;17.93;4.40;;;18.70;99.90;;;;;;5062874;28;20194;-72
2022/05/24 04:22:27;;;;;;;17.00;4.13;;;18.70;99.90;;;;;;5060703;28;20263;-72
2022/05/24 04:24:53;;;;;;;18.23;4.63;;;18.80;99.90;;;;;;5065547;28;20196;-72
2022/05/24 04:27:19;;;;;;;15.27;4.27;;;18.80;99.90;;;;;;5052285;28;20194;-72
2022/05/24 04:29:45;;;;;;;18.23;4.50;;;18.80;99.90;;;;;;5066743;28;20205;-72
2022/05/24 04:32:12;;;;;;;14.00;4.43;;;18.90;99.90;;;;;;5062288;28;20211;-72
2022/05/24 04:34:38;;;;;;;14.43;4.23;;;19.00;99.90;;;;;;5042900;28;20628;-72
2022/05/24 04:37:08;;;;;;;15.33;4.53;;;19.00;99.90;;;;;;5055056;28;20546;-72
2022/05/24 04:39:35;;;;;;;15.23;3.90;;;19.00;99.90;;;;;;5075162;28;20190;-72
2022/05/24 04:42:19;;;;;;;14.70;3.93;;;19.10;99.90;;;;;;5047750;28;20256;-72
2022/05/24 04:44:49;;;;;;;14.53;4.93;;;19.20;99.90;;;;;;5042889;28;20624;-72
2022/05/24 04:47:16;;;;;;;15.77;4.87;;;19.30;99.90;;;;;;5078367;28;20210;-72
2022/05/24 04:49:50;;;;;;;18.20;5.23;;;19.40;99.90;;;;;;5071254;28;20248;-72
2022/05/24 04:52:18;;;;;;;15.20;4.27;;;19.50;99.90;;;;;;5045720;28;20182;-72
2022/05/24 04:54:45;;;;;;;12.10;4.30;;;19.50;99.90;;;;;;5060725;28;20198;-72
2022/05/24 04:57:12;;;;;;;15.33;4.37;;;19.50;99.90;;;;;;5058030;28;20180;-72
2022/05/24 04:59:41;;;;;;;14.80;4.90;;;19.60;99.90;;;;;;5066418;28;20221;-72
2022/05/24 05:02:09;;;;;;;13.67;4.50;;;19.60;99.90;;;;;;5056705;28;20198;-72
2022/05/24 05:04:38;;;;;;;14.30;4.17;;;19.60;99.90;;;;;;5051529;28;20209;-72
2022/05/24 05:07:06;;;;;;;15.17;4.53;;;19.70;99.90;;;;;;5047845;28;20209;-72
2022/05/24 05:09:37;;;;;;;14.20;4.20;;;19.70;99.90;;;;;;5061568;28;20627;-72
2022/05/24 05:12:08;;;;;;;12.37;3.77;;;19.80;99.90;;;;;;5057054;28;20274;-72
2022/05/24 05:14:36;;;;;;;15.17;4.67;;;19.90;99.90;;;;;;5071083;28;20233;-72
2022/05/24 05:17:04;;;;;;;10.97;4.10;;;19.90;99.90;;;;;;5052436;28;20187;-72
2022/05/24 05:19:31;;;;;;;12.33;4.67;;;19.90;99.90;;;;;;5065206;28;20307;-72
2022/05/24 05:21:58;;;;;;;12.60;4.07;;;20.00;99.90;;;;;;5066678;28;20527;-72
2022/05/24 05:24:25;;;;;;;12.87;3.50;;;20.00;99.90;;;;;;5045250;28;20197;-72
2022/05/24 05:26:51;;;;;;;11.57;4.13;;;20.00;99.90;;;;;;5048975;28;20653;-72
2022/05/24 05:31:16;;;;;;;12.83;3.30;;;20.00;99.90;;;;;;5053909;28;20335;-72
2022/05/24 05:32:04;;;;;;;11.37;3.83;;;20.10;99.90;;;;;;5054937;28;20217;-72
2022/05/24 05:34:31;;;;;;;10.13;3.90;;;20.10;99.90;;;;;;5063591;28;20217;-72
2022/05/24 05:37:04;;;;;;;14.20;4.30;;;20.20;99.90;;;;;;5061700;28;20607;-72
2022/05/24 05:39:31;;;;;;;9.90;3.70;;;20.20;99.90;;;;;;5057209;28;20198;-72
2022/05/24 05:41:57;;;;;;;10.40;3.43;;;20.20;99.90;;;;;;5050043;28;20620;-72
2022/05/24 05:44:23;;;;;;;6.80;3.07;;;20.30;99.90;;;;;;5065328;28;20191;-72
2022/05/24 05:46:49;;;;;;;10.73;3.23;;;20.40;99.90;;;;;;5053739;28;20194;-72
2022/05/24 05:49:16;;;;;;;8.80;3.13;;;20.50;99.90;;;;;;5051349;28;20187;-72
2022/05/24 05:51:44;;;;;;;11.23;3.50;;;20.50;99.90;;;;;;5047326;28;20217;-72
2022/05/24 05:54:11;;;;;;;11.17;4.00;;;20.50;99.90;;;;;;5070129;28;20252;-72
2022/05/24 05:56:39;;;;;;;11.13;3.77;;;20.60;99.90;;;;;;5064874;28;20310;-72
2022/05/24 05:59:06;;;;;;;11.90;4.07;;;20.70;99.90;;;;;;5069566;28;20183;-72
2022/05/24 06:01:32;;;;;;;13.00;3.83;;;20.70;99.90;;;;;;5070810;28;20175;-72
2022/05/24 06:04:00;;;;;;;14.70;4.10;;;20.80;99.90;;;;;;5050373;28;20214;-72
2022/05/24 06:06:37;;;;;;;13.73;3.90;;;20.90;99.90;;;;;;5072038;28;20677;-73
2022/05/24 06:09:04;;;;;;;13.47;4.80;;;21.00;99.90;;;;;;5044156;28;20515;-72
2022/05/24 06:11:31;;;;;;;21.70;5.13;;;21.10;99.90;;;;;;5059201;28;20575;-72
2022/05/24 06:13:57;;;;;;;16.33;4.70;;;21.20;99.90;;;;;;5081248;28;20230;-72
2022/05/24 06:16:24;;;;;;;18.10;4.53;;;21.30;99.90;;;;;;5065350;28;20196;-72
2022/05/24 06:18:50;;;;;;;17.17;4.83;;;21.40;99.90;;;;;;5044490;28;20717;-72
2022/05/24 06:21:22;;;;;;;19.73;5.47;;;21.40;99.90;;;;;;5077477;28;20242;-72
2022/05/24 06:23:49;;;;;;;20.13;4.97;;;21.50;99.90;;;;;;5076115;28;20214;-72
2022/05/24 06:26:18;;;;;;;18.87;4.60;;;21.60;99.90;;;;;;5065071;28;20202;-72
2022/05/24 06:28:48;;;;;;;11.70;3.90;;;21.60;99.90;;;;;;5059432;28;20279;-72
2022/05/24 06:31:14;;;;;;;13.07;3.97;;;21.70;99.90;;;;;;5058533;28;20226;-71
2022/05/24 06:33:41;;;;;;;12.13;4.23;;;21.70;99.90;;;;;;5069018;28;20280;-72
2022/05/24 06:36:07;;;;;;;9.67;3.73;;;21.90;99.90;;;;;;5075200;28;20717;-72
2022/05/24 06:38:37;;;;;;;17.67;4.03;;;21.90;99.90;;;;;;5061931;28;20662;-72
2022/05/24 06:41:04;;;;;;;17.23;4.03;;;22.00;99.90;;;;;;5052549;28;20737;-71
2022/05/24 06:43:36;;;;;;;14.10;4.33;;;22.10;99.90;;;;;;5050192;28;20190;-72
2022/05/24 06:46:07;;;;;;;12.80;4.30;;;22.10;99.90;;;;;;5060816;28;20689;-72
2022/05/24 06:48:43;;;;;;;15.70;4.27;;;22.20;99.90;;;;;;5081739;28;20197;-72
2022/05/24 06:51:20;;;;;;;20.47;4.77;;;22.30;99.90;;;;;;5065919;28;20611;-72
2022/05/24 06:53:50;;;;;;;16.53;4.70;;;22.50;99.90;;;;;;5075190;28;20301;-72
2022/05/24 06:56:18;;;;;;;14.20;4.33;;;22.50;99.90;;;;;;5055863;28;20646;-72
2022/05/24 06:58:48;;;;;;;17.30;5.07;;;22.60;99.90;;;;;;5082277;28;20270;-72
2022/05/24 07:04:03;;;;;;;15.77;4.40;;;22.70;99.90;;;;;;5055741;28;20190;-72
2022/05/24 07:06:29;;;;;;;16.40;4.80;;;22.80;99.90;;;;;;5056129;28;20202;-72
2022/05/24 07:08:56;;;;;;;15.80;4.47;;;22.90;99.90;;;;;;5044201;28;20195;-72
2022/05/24 07:11:23;;;;;;;17.67;4.57;;;23.00;99.90;;;;;;5045698;28;20187;-72
2022/05/24 07:13:50;;;;;;;13.57;4.03;;;22.90;99.90;;;;;;5044401;28;20214;-72
2022/05/24 07:16:17;;;;;;;18.17;4.93;;;23.00;99.90;;;;;;5061589;28;20714;-73
2022/05/24 07:18:43;;;;;;;14.70;4.63;;;23.10;99.90;;;;;;5047785;28;20245;-72
2022/05/24 07:21:09;;;;;;;16.50;4.47;;;23.10;99.90;;;;;;5060846;28;20199;-72
2022/05/24 07:23:38;;;;;;;16.60;4.70;;;23.20;99.90;;;;;;5028226;28;20195;-72
2022/05/24 07:26:18;;;;;;;11.88;4.57;;;23.20;99.90;;;;;;5048250;28;20203;-72
2022/05/24 07:28:45;;;;;;;20.83;5.07;;;23.30;99.90;;;;;;5066795;28;20198;-72
2022/05/24 07:31:11;;;;;;;13.93;4.22;;;23.40;99.90;;;;;;5049203;28;20661;-72
2022/05/24 07:33:38;;;;;;;12.88;4.43;;;23.60;99.90;;;;;;5065313;28;20210;-72
2022/05/24 07:36:06;;;;;;;18.27;4.85;;;23.50;99.90;;;;;;5065291;28;20202;-72
2022/05/24 07:38:37;;;;;;;13.63;3.90;;;23.50;99.90;;;;;;5063006;28;20198;-72
2022/05/24 07:46:34;;;;;;;12.85;3.97;;;23.70;99.90;;;;;;5052563;28;20218;-72
2022/05/24 07:49:00;;;;;;;18.23;4.47;;;23.80;99.90;;;;;;5058781;28;20775;-72
2022/05/24 07:51:27;;;;;;;15.45;4.30;;;23.80;99.90;;;;;;5065531;28;20190;-72
2022/05/24 07:53:54;;;;;;;18.17;4.57;;;23.80;99.90;;;;;;5056197;28;20532;-72
2022/05/24 07:56:20;;;;;;;20.75;4.65;;;24.00;99.90;;;;;;5053319;28;20187;-72
2022/05/24 07:58:47;;;;;;;17.20;4.70;;;24.00;99.90;;;;;;5051274;28;20182;-72
2022/05/24 08:01:16;;;;;;;15.60;5.18;;;24.00;99.90;;;;;;5053632;28;20210;-72
2022/05/24 08:03:45;;;;;;;17.58;4.70;;;24.10;99.90;;;;;;5057354;28;20191;-72
2022/05/24 08:06:11;;;;;;;14.48;5.10;;;24.20;99.90;;;;;;5047564;28;20214;-72
2022/05/24 08:08:39;;;;;;;17.60;4.90;;;24.20;99.90;;;;;;5060788;28;20534;-72
2022/05/24 08:11:06;;;;;;;19.75;4.78;;;24.30;99.90;;;;;;5040587;28;20214;-72
2022/05/24 08:13:33;;;;;;;22.98;5.05;;;24.40;99.90;;;;;;5043014;28;20202;-72
2022/05/24 08:15:59;;;;;;;12.77;4.00;;;24.50;99.90;;;;;;5052669;28;20183;-72
2022/05/24 08:18:25;;;;;;;14.45;4.18;;;24.50;99.90;;;;;;5052333;28;20195;-72
2022/05/24 08:20:54;;;;;;;16.23;4.55;;;24.50;99.90;;;;;;5025911;28;20190;-72
2022/05/24 08:23:24;;;;;;;14.05;4.07;;;24.50;99.90;;;;;;5059901;28;20651;-72
2022/05/24 08:25:51;;;;;;;16.52;4.55;;;24.60;99.90;;;;;;5026025;28;20186;-72
2022/05/24 08:28:18;;;;;;;15.30;4.25;;;24.80;99.90;;;;;;5058720;28;20191;-72
2022/05/24 08:30:46;;;;;;;13.63;4.13;;;24.80;99.90;;;;;;5054921;28;20193;-72
2022/05/24 08:33:15;;;;;;;18.25;5.35;;;24.80;99.90;;;;;;5044279;28;20206;-72
2022/05/24 08:35:43;;;;;;;14.50;4.82;;;24.80;99.90;;;;;;5048453;28;20179;-72
2022/05/24 08:38:12;;;;;;;22.25;4.80;;;24.80;99.90;;;;;;5055459;28;20186;-72
2022/05/24 08:40:43;;;;;;;16.00;4.35;;;24.80;99.90;;;;;;5050833;28;20178;-72
2022/05/24 08:43:36;;;;;;;16.13;4.22;;;24.80;99.90;;;;;;5047160;28;20592;-72
2022/05/24 08:49:10;;;;;;;15.68;4.75;;;24.70;99.90;;;;;;5060855;28;20218;-73
2022/05/24 08:51:57;;;;;;;18.67;4.97;;;24.80;99.90;;;;;;5047464;28;20412;-72
2022/05/24 08:54:41;;;;;;;17.20;4.97;;;24.70;99.90;;;;;;5058135;28;20706;-72
2022/05/24 08:57:18;;;;;;;18.17;5.30;;;25.00;99.90;;;;;;5050137;28;20194;-73
2022/05/24 08:59:56;;;;;;;17.73;4.70;;;24.90;99.90;;;;;;5068450;28;20185;-72
2022/05/24 09:02:23;;;;;;;21.45;4.82;;;25.00;99.90;;;;;;5044631;28;20188;-72
2022/05/24 09:04:51;;;;;;;21.60;5.25;;;25.00;99.90;;;;;;5066068;28;20183;-72
2022/05/24 09:07:43;;;;;;;15.90;4.80;;;25.00;99.90;;;;;;5063450;28;20191;-72
2022/05/24 09:10:21;;;;;;;19.20;4.55;;;25.10;99.90;;;;;;5066085;28;20190;-72
2022/05/24 09:13:06;;;;;;;22.63;4.93;;;25.10;99.90;;;;;;5061035;28;20225;-72
2022/05/24 09:15:50;;;;;;;18.83;5.03;;;25.20;99.90;;;;;;5036724;28;20274;-72
2022/05/24 09:19:09;;;;;;;19.42;5.43;;;25.30;99.90;;;;;;5043383;28;20865;-72
2022/05/24 09:21:39;;;;;;;18.30;5.38;;;25.40;99.90;;;;;;5055582;28;20195;-72
2022/05/24 09:24:40;;;;;;;21.23;5.22;;;25.50;99.90;;;;;;5043320;28;20645;-72
2022/05/24 09:27:23;;;;;;;18.98;5.07;;;25.40;99.90;;;;;;5042771;28;20197;-72
2022/05/24 09:29:59;;;;;;;19.55;5.57;;;25.70;99.90;;;;;;5055888;28;20197;-72
2022/05/24 09:32:44;;;;;;;15.48;5.28;;;25.80;99.90;;;;;;5057836;28;20268;-72
2022/05/24 09:35:22;;;;;;;17.60;5.32;;;25.80;99.90;;;;;;5056079;28;20529;-72
2022/05/24 09:38:04;;;;;;;19.48;5.03;;;25.90;99.90;;;;;;5041662;28;20706;-72
2022/05/24 09:41:00;;;;;;;14.68;4.07;;;26.20;99.90;;;;;;5049846;28;20519;-72
2022/05/24 09:43:29;;;;;;;19.55;5.50;;;26.10;99.90;;;;;;5062605;28;20202;-72
2022/05/24 09:46:05;;;;;;;18.33;5.20;;;26.10;99.90;;;;;;5042590;28;20219;-72
2022/05/24 09:48:50;;;;;;;11.35;4.35;;;26.30;99.90;;;;;;5063030;28;20254;-72
2022/05/24 09:51:36;;;;;;;19.00;4.72;;;26.20;99.90;;;;;;5042596;28;20206;-72
2022/05/24 09:54:14;;;;;;;17.23;4.90;;;26.30;99.90;;;;;;5065699;28;20226;-72
2022/05/24 09:56:41;;;;;;;18.70;4.63;;;26.40;99.90;;;;;;5043822;28;20244;-73
2022/05/24 09:59:26;;;;;;;16.08;4.50;;;26.50;99.90;;;;;;5060107;28;20264;-73
2022/05/24 10:01:53;;;;;;;17.00;4.82;;;26.70;99.90;;;;;;5040004;28;20187;-73
2022/05/24 10:04:40;;;;;;;13.07;4.15;;;26.80;99.90;;;;;;5066905;28;20194;-72
2022/05/24 10:07:39;;;;;;;19.58;4.78;;;26.90;99.90;;;;;;5061912;28;20282;-73
2022/05/24 10:10:21;;;;;;;16.77;3.97;;;26.90;99.90;;;;;;5042646;28;20285;-73
2022/05/24 10:13:30;;;;;;;16.00;4.55;;;27.00;99.90;;;;;;5051491;28;20210;-73
2022/05/24 10:16:21;;;;;;;20.60;5.00;;;27.10;99.90;;;;;;5047299;28;20225;-73
2022/05/24 10:19:12;;;;;;;19.17;4.75;;;27.10;99.90;;;;;;5043902;28;22335;-73
2022/05/24 10:21:55;;;;;;;14.63;4.20;;;27.20;99.90;;;;;;5028402;28;20191;-72
2022/05/24 10:24:48;;;;;;;16.45;4.80;;;27.40;99.90;;;;;;5063553;28;20286;-73
2022/05/24 10:27:36;;;;;;;22.13;5.13;;;27.40;99.90;;;;;;5046509;28;20261;-72
2022/05/24 10:30:27;;;;;;;21.67;4.45;;;27.30;99.90;;;;;;5054127;28;20328;-73
2022/05/24 10:40:04;;;;;;;20.15;4.70;;;27.30;99.90;;;;;;5062565;28;20278;-73
2022/05/24 10:43:09;;;;;;;20.52;5.00;;;27.30;99.90;;;;;;5070214;28;20264;-72
2022/05/24 10:46:03;;;;;;;14.18;4.18;;;27.20;99.90;;;;;;5037724;28;20289;-73
2022/05/24 10:49:01;;;;;;;21.27;4.47;;;27.10;99.90;;;;;;5045680;28;20282;-73
2022/05/24 10:52:00;;;;;;;19.10;5.15;;;27.20;99.90;;;;;;5076452;28;20220;-72
2022/05/24 10:54:32;;;;;;;20.10;4.75;;;27.10;99.90;;;;;;5050154;28;20247;-72
2022/05/24 10:57:26;;;;;;;18.65;5.47;;;27.30;99.90;;;;;;5069824;28;20190;-73
2022/05/24 11:00:34;;;;;;;20.67;4.95;;;27.20;99.90;;;;;;5049903;28;20187;-73
2022/05/24 11:03:16;;;;;;;13.93;4.53;;;27.00;99.90;;;;;;5035063;28;20205;-72
2022/05/24 11:05:50;;;;;;;21.63;5.00;;;27.10;99.90;;;;;;5054809;28;20200;-73
2022/05/24 11:08:47;;;;;;;17.42;4.50;;;27.00;99.90;;;;;;5064475;28;20867;-73
2022/05/24 11:11:29;;;;;;;15.82;4.72;;;27.00;99.90;;;;;;5063494;28;20255;-73
2022/05/24 11:14:27;;;;;;;16.60;4.43;;;26.90;99.90;;;;;;5052211;28;20210;-73
2022/05/24 11:16:56;;;;;;;22.55;4.88;;;26.80;99.90;;;;;;5053544;28;20835;-73
2022/05/24 11:19:36;;;;;;;18.17;4.80;;;26.80;99.90;;;;;;5069717;28;20179;-73
2022/05/24 11:22:35;;;;;;;20.88;5.22;;;26.80;99.90;;;;;;5061255;28;20182;-73
2022/05/24 11:25:27;;;;;;;18.88;5.45;;;26.80;99.90;;;;;;5060149;28;20198;-73
2022/05/24 11:28:10;;;;;;;17.67;4.47;;;26.90;99.90;;;;;;5083425;28;20194;-73
2022/05/24 11:30:40;;;;;;;12.00;3.88;;;26.80;99.90;;;;;;5067686;28;20637;-73
2022/05/24 11:33:15;;;;;;;18.27;4.80;;;26.80;99.90;;;;;;5062863;28;20232;-73
2022/05/24 11:35:52;;;;;;;14.30;4.40;;;26.90;99.90;;;;;;5059977;28;20210;-73
2022/05/24 11:38:24;;;;;;;14.38;4.20;;;26.90;99.90;;;;;;5046613;28;20199;-73
2022/05/24 11:41:01;;;;;;;14.23;3.88;;;26.80;99.90;;;;;;5044379;28;20187;-73
2022/05/24 11:43:43;;;;;;;15.15;4.50;;;26.90;99.90;;;;;;5064505;28;20248;-73
2022/05/24 11:46:37;;;;;;;16.35;4.97;;;26.90;99.90;;;;;;5041496;28;20751;-73
2022/05/24 11:49:32;;;;;;;20.70;4.25;;;26.90;99.90;;;;;;5024922;28;20310;-73
2022/05/24 11:52:21;;;;;;;16.08;4.68;;;27.10;99.90;;;;;;5044036;28;20202;-73
2022/05/24 11:54:54;;;;;;;13.43;3.58;;;27.10;99.90;;;;;;5044773;28;20214;-73
2022/05/24 11:57:27;;;;;;;11.02;4.50;;;27.20;99.90;;;;;;5026547;28;20190;-73
2022/05/24 11:59:54;;;;;;;9.13;2.88;;;27.30;99.90;;;;;;5066477;28;20281;-73
2022/05/24 12:08:28;;;;;;;12.85;3.50;;;27.40;99.90;;;;;;5069768;28;20192;-73
2022/05/24 12:11:16;;;;;;;9.65;3.20;;;27.30;99.90;;;;;;5061820;28;20199;-73
2022/05/24 12:13:54;;;;;;;4.18;2.45;;;27.40;99.90;;;;;;5064860;28;20839;-73
2022/05/24 12:17:06;;;;;;;14.15;3.30;;;27.40;99.90;;;;;;5050101;28;20175;-73
2022/05/24 12:19:40;;;;;;;4.45;2.17;;;27.40;99.90;;;;;;5061666;28;20256;-73
2022/05/24 12:22:22;;;;;;;4.43;1.90;;;27.50;99.10;;;;;;5054976;28;20698;-73
2022/05/24 12:24:59;;;;;;;5.50;2.22;;;27.60;96.40;;;;;;5044651;28;20429;-73
2022/05/24 12:27:51;;;;;;;4.47;2.00;;;27.60;98.20;;;;;;5064501;28;20834;-73
2022/05/24 12:30:45;;;;;;;5.50;2.15;;;27.50;97.00;;;;;;5035582;28;20198;-73
2022/05/24 12:33:25;;;;;;;7.57;2.50;;;27.50;98.00;;;;;;5064880;28;20554;-73
2022/05/24 12:36:11;;;;;;;8.27;2.67;;;27.70;99.10;;;;;;5058498;28;20179;-73
2022/05/24 12:38:38;;;;;;;7.82;2.80;;;27.60;99.90;;;;;;5044756;28;21311;-73
2022/05/24 12:41:36;;;;;;;12.50;3.17;;;27.70;99.40;;;;;;5046793;28;20187;-73
2022/05/24 12:44:38;;;;;;;11.88;3.67;;;27.80;99.90;;;;;;5062193;28;20194;-73
2022/05/24 12:47:07;;;;;;;13.15;3.80;;;27.80;99.90;;;;;;5052233;28;20198;-73
2022/05/24 12:49:50;;;;;;;11.93;3.47;;;27.70;99.90;;;;;;5048531;28;20198;-73
2022/05/24 12:52:22;;;;;;;13.82;3.90;;;27.80;99.90;;;;;;5060313;28;20586;-73
2022/05/24 12:55:06;;;;;;;10.70;3.47;;;27.70;99.90;;;;;;5048867;28;20268;-73
2022/05/24 12:57:47;;;;;;;12.15;3.75;;;27.70;99.90;;;;;;5039407;28;20186;-73
2022/05/24 13:00:23;;;;;;;15.45;3.97;;;27.50;99.90;;;;;;5058878;28;20534;-73
2022/05/24 13:02:53;;;;;;;16.20;4.03;;;27.60;99.90;;;;;;5060836;28;20273;-73
2022/05/24 13:05:36;;;;;;;8.90;3.20;;;27.40;99.90;;;;;;5046971;28;20216;-73
2022/05/24 13:08:03;;;;;;;13.70;3.17;;;27.40;99.90;;;;;;5062551;28;20193;-73
2022/05/24 13:10:39;;;;;;;11.48;3.58;;;27.50;99.90;;;;;;5042634;28;20203;-73
2022/05/24 13:13:21;;;;;;;9.02;3.05;;;27.50;99.90;;;;;;5056835;28;21088;-73
2022/05/24 13:15:59;;;;;;;8.18;3.13;;;27.30;99.90;;;;;;5044496;28;22215;-73
2022/05/24 13:18:31;;;;;;;13.27;2.95;;;27.50;99.90;;;;;;5032807;28;20285;-73
2022/05/24 13:21:08;;;;;;;9.07;2.92;;;27.50;99.90;;;;;;5059472;28;20214;-73
2022/05/24 13:23:40;;;;;;;9.75;2.90;;;27.50;99.90;;;;;;5048878;28;20201;-73
2022/05/24 13:26:06;;;;;;;8.48;2.92;;;27.60;99.90;;;;;;5045531;28;20198;-73
2022/05/24 13:28:53;;;;;;;8.40;2.72;;;27.60;99.90;;;;;;5049012;28;20273;-73
2022/05/24 13:34:30;;;;;;;7.95;2.63;;;27.40;99.90;;;;;;5064276;28;20211;-73
2022/05/24 13:37:02;;;;;;;7.75;2.58;;;27.40;98.90;;;;;;5066231;28;20190;-73
2022/05/24 13:39:44;;;;;;;6.63;2.45;;;27.40;99.30;;;;;;5049837;28;20260;-73
2022/05/24 13:42:25;;;;;;;5.07;2.58;;;27.20;99.90;;;;;;5060659;28;20630;-73
2022/05/24 13:45:14;;;;;;;8.60;2.13;;;27.20;97.80;;;;;;5045986;28;20187;-73
2022/05/24 13:47:47;;;;;;;4.72;2.10;;;27.10;97.80;;;;;;5063155;28;20199;-73
2022/05/24 13:50:40;;;;;;;4.78;2.38;;;27.10;93.50;;;;;;5033407;28;20689;-73
2022/05/24 13:53:39;;;;;;;8.85;2.60;;;27.10;96.40;;;;;;5045503;28;20211;-73
2022/05/24 13:56:47;;;;;;;11.35;2.75;;;27.10;98.60;;;;;;5065961;28;20193;-73
2022/05/24 13:59:24;;;;;;;6.97;2.20;;;26.90;98.00;;;;;;5038419;28;20224;-73
2022/05/24 14:01:57;;;;;;;6.32;2.30;;;27.00;95.90;;;;;;5063525;28;20190;-73